sensor_id;sensor_type;location;lat;lon;timestamp;P1;durP1;ratioP1;P2;durP2;ratioP2
22768;SDS011;13001;51.968;5.918;2022-10-31T00:01:15;588.27;;;540.33;;
22768;SDS011;13001;51.968;5.918;2022-10-31T00:03:42;591.08;;;543.80;;
22768;SDS011;13001;51.968;5.918;2022-10-31T00:06:09;604.23;;;555.87;;
22768;SDS011;13001;51.968;5.918;2022-10-31T00:08:37;608.12;;;560.05;;
22768;SDS011;13001;51.968;5.918;2022-10-31T00:11:07;615.07;;;564.87;;
22768;SDS011;13001;51.968;5.918;2022-10-31T00:13:33;627.62;;;574.27;;
22768;SDS011;13001;51.968;5.918;2022-10-31T00:16:00;626.20;;;571.40;;
22768;SDS011;13001;51.968;5.918;2022-10-31T00:18:27;617.40;;;563.55;;
22768;SDS011;13001;51.968;5.918;2022-10-31T00:21:02;673.83;;;616.95;;
22768;SDS011;13001;51.968;5.918;2022-10-31T00:23:26;615.80;;;562.62;;
22768;SDS011;13001;51.968;5.918;2022-10-31T00:25:54;667.65;;;610.83;;
22768;SDS011;13001;51.968;5.918;2022-10-31T00:28:21;620.23;;;565.60;;
22768;SDS011;13001;51.968;5.918;2022-10-31T00:30:48;622.37;;;568.30;;
22768;SDS011;13001;51.968;5.918;2022-10-31T00:33:15;604.60;;;553.77;;
22768;SDS011;13001;51.968;5.918;2022-10-31T00:35:43;610.42;;;562.35;;
22768;SDS011;13001;51.968;5.918;2022-10-31T00:38:11;605.25;;;552.37;;
22768;SDS011;13001;51.968;5.918;2022-10-31T00:40:39;600.00;;;548.17;;
22768;SDS011;13001;51.968;5.918;2022-10-31T00:43:06;617.85;;;564.45;;
22768;SDS011;13001;51.968;5.918;2022-10-31T00:45:33;713.58;;;652.00;;
22768;SDS011;13001;51.968;5.918;2022-10-31T00:48:00;695.17;;;634.42;;
22768;SDS011;13001;51.968;5.918;2022-10-31T00:50:28;668.63;;;611.23;;
22768;SDS011;13001;51.968;5.918;2022-10-31T00:52:55;615.00;;;563.43;;
22768;SDS011;13001;51.968;5.918;2022-10-31T00:55:23;608.50;;;560.40;;
22768;SDS011;13001;51.968;5.918;2022-10-31T00:57:50;591.70;;;544.13;;
22768;SDS011;13001;51.968;5.918;2022-10-31T01:00:18;608.15;;;555.77;;
22768;SDS011;13001;51.968;5.918;2022-10-31T01:02:45;686.47;;;629.07;;
22768;SDS011;13001;51.968;5.918;2022-10-31T01:05:12;702.02;;;642.35;;
22768;SDS011;13001;51.968;5.918;2022-10-31T01:07:40;748.65;;;684.08;;
22768;SDS011;13001;51.968;5.918;2022-10-31T01:10:09;738.87;;;675.90;;
22768;SDS011;13001;51.968;5.918;2022-10-31T01:12:37;751.33;;;687.55;;
22768;SDS011;13001;51.968;5.918;2022-10-31T01:15:05;720.65;;;658.95;;
22768;SDS011;13001;51.968;5.918;2022-10-31T01:17:33;721.35;;;659.37;;
22768;SDS011;13001;51.968;5.918;2022-10-31T01:20:00;728.23;;;667.05;;
22768;SDS011;13001;51.968;5.918;2022-10-31T01:22:27;705.73;;;647.27;;
22768;SDS011;13001;51.968;5.918;2022-10-31T01:24:55;787.15;;;721.75;;
22768;SDS011;13001;51.968;5.918;2022-10-31T01:27:22;734.40;;;671.58;;
22768;SDS011;13001;51.968;5.918;2022-10-31T01:29:49;749.73;;;686.15;;
22768;SDS011;13001;51.968;5.918;2022-10-31T01:32:16;748.80;;;684.40;;
22768;SDS011;13001;51.968;5.918;2022-10-31T01:34:44;741.73;;;677.02;;
22768;SDS011;13001;51.968;5.918;2022-10-31T01:37:12;749.30;;;685.25;;
22768;SDS011;13001;51.968;5.918;2022-10-31T01:39:39;762.55;;;697.13;;
22768;SDS011;13001;51.968;5.918;2022-10-31T01:42:06;753.05;;;686.95;;
22768;SDS011;13001;51.968;5.918;2022-10-31T01:47:08;609.42;;;559.55;;
22768;SDS011;13001;51.968;5.918;2022-10-31T01:49:34;609.52;;;559.52;;
22768;SDS011;13001;51.968;5.918;2022-10-31T01:52:01;614.05;;;562.98;;
22768;SDS011;13001;51.968;5.918;2022-10-31T01:54:30;600.40;;;550.95;;
22768;SDS011;13001;51.968;5.918;2022-10-31T01:56:58;687.23;;;628.83;;
22768;SDS011;13001;51.968;5.918;2022-10-31T01:59:26;668.70;;;616.63;;
22768;SDS011;13001;51.968;5.918;2022-10-31T02:01:54;600.58;;;554.40;;
22768;SDS011;13001;51.968;5.918;2022-10-31T02:04:22;592.15;;;545.67;;
22768;SDS011;13001;51.968;5.918;2022-10-31T02:06:52;576.75;;;529.72;;
22768;SDS011;13001;51.968;5.918;2022-10-31T02:09:19;617.72;;;567.35;;
22768;SDS011;13001;51.968;5.918;2022-10-31T02:11:56;718.80;;;659.00;;
22768;SDS011;13001;51.968;5.918;2022-10-31T02:14:20;827.62;;;758.02;;
22768;SDS011;13001;51.968;5.918;2022-10-31T02:16:48;844.85;;;774.27;;
22768;SDS011;13001;51.968;5.918;2022-10-31T02:19:17;850.75;;;778.60;;
22768;SDS011;13001;51.968;5.918;2022-10-31T02:21:48;875.15;;;799.85;;
22768;SDS011;13001;51.968;5.918;2022-10-31T02:27:04;742.72;;;678.65;;
22768;SDS011;13001;51.968;5.918;2022-10-31T02:32:00;772.30;;;705.00;;
22768;SDS011;13001;51.968;5.918;2022-10-31T02:34:34;768.37;;;701.25;;
22768;SDS011;13001;51.968;5.918;2022-10-31T02:37:11;762.38;;;695.50;;
22768;SDS011;13001;51.968;5.918;2022-10-31T02:42:11;730.25;;;666.12;;
22768;SDS011;13001;51.968;5.918;2022-10-31T02:44:39;728.92;;;666.85;;
22768;SDS011;13001;51.968;5.918;2022-10-31T02:47:18;718.48;;;657.23;;
22768;SDS011;13001;51.968;5.918;2022-10-31T02:49:55;738.80;;;677.30;;
22768;SDS011;13001;51.968;5.918;2022-10-31T02:52:26;728.05;;;666.55;;
22768;SDS011;13001;51.968;5.918;2022-10-31T02:54:54;754.87;;;691.80;;
22768;SDS011;13001;51.968;5.918;2022-10-31T02:57:25;751.13;;;688.30;;
22768;SDS011;13001;51.968;5.918;2022-10-31T02:59:54;755.50;;;690.30;;
22768;SDS011;13001;51.968;5.918;2022-10-31T03:05:43;782.53;;;714.60;;
22768;SDS011;13001;51.968;5.918;2022-10-31T03:07:53;764.08;;;698.42;;
22768;SDS011;13001;51.968;5.918;2022-10-31T03:15:30;815.30;;;741.38;;
22768;SDS011;13001;51.968;5.918;2022-10-31T03:20:36;802.20;;;729.75;;
22768;SDS011;13001;51.968;5.918;2022-10-31T03:22:59;818.63;;;744.43;;
22768;SDS011;13001;51.968;5.918;2022-10-31T03:25:27;813.50;;;739.87;;
22768;SDS011;13001;51.968;5.918;2022-10-31T03:27:56;798.52;;;725.67;;
22768;SDS011;13001;51.968;5.918;2022-10-31T03:30:24;799.65;;;727.70;;
22768;SDS011;13001;51.968;5.918;2022-10-31T03:32:52;801.00;;;734.90;;
22768;SDS011;13001;51.968;5.918;2022-10-31T03:35:20;782.30;;;718.85;;
22768;SDS011;13001;51.968;5.918;2022-10-31T03:37:49;792.60;;;726.70;;
22768;SDS011;13001;51.968;5.918;2022-10-31T03:40:18;792.05;;;721.60;;
22768;SDS011;13001;51.968;5.918;2022-10-31T03:42:51;799.40;;;729.38;;
22768;SDS011;13001;51.968;5.918;2022-10-31T03:45:24;739.80;;;674.83;;
22768;SDS011;13001;51.968;5.918;2022-10-31T03:47:47;699.40;;;639.52;;
22768;SDS011;13001;51.968;5.918;2022-10-31T03:50:14;680.60;;;622.42;;
22768;SDS011;13001;51.968;5.918;2022-10-31T03:53:17;644.65;;;590.80;;
22768;SDS011;13001;51.968;5.918;2022-10-31T03:55:17;632.55;;;580.03;;
22768;SDS011;13001;51.968;5.918;2022-10-31T03:57:48;690.70;;;631.73;;
22768;SDS011;13001;51.968;5.918;2022-10-31T04:00:14;714.10;;;652.55;;
22768;SDS011;13001;51.968;5.918;2022-10-31T04:03:03;767.58;;;699.27;;
22768;SDS011;13001;51.968;5.918;2022-10-31T04:05:14;769.85;;;699.62;;
22768;SDS011;13001;51.968;5.918;2022-10-31T04:07:43;781.00;;;715.75;;
22768;SDS011;13001;51.968;5.918;2022-10-31T04:10:13;782.38;;;715.58;;
22768;SDS011;13001;51.968;5.918;2022-10-31T04:12:40;776.40;;;707.63;;
22768;SDS011;13001;51.968;5.918;2022-10-31T04:15:08;792.72;;;723.88;;
22768;SDS011;13001;51.968;5.918;2022-10-31T04:17:36;788.95;;;719.55;;
22768;SDS011;13001;51.968;5.918;2022-10-31T04:20:05;784.35;;;715.77;;
22768;SDS011;13001;51.968;5.918;2022-10-31T04:22:32;770.42;;;703.15;;
22768;SDS011;13001;51.968;5.918;2022-10-31T04:25:02;765.55;;;699.48;;
22768;SDS011;13001;51.968;5.918;2022-10-31T04:27:29;771.20;;;704.77;;
22768;SDS011;13001;51.968;5.918;2022-10-31T04:29:56;758.00;;;690.80;;
22768;SDS011;13001;51.968;5.918;2022-10-31T04:32:23;763.83;;;695.43;;
22768;SDS011;13001;51.968;5.918;2022-10-31T04:34:51;762.48;;;694.73;;
22768;SDS011;13001;51.968;5.918;2022-10-31T04:37:18;774.02;;;706.87;;
22768;SDS011;13001;51.968;5.918;2022-10-31T04:39:45;770.55;;;703.60;;
22768;SDS011;13001;51.968;5.918;2022-10-31T04:42:12;764.33;;;696.40;;
22768;SDS011;13001;51.968;5.918;2022-10-31T04:44:40;787.15;;;720.20;;
22768;SDS011;13001;51.968;5.918;2022-10-31T04:47:07;796.15;;;729.95;;
22768;SDS011;13001;51.968;5.918;2022-10-31T04:49:34;782.10;;;713.75;;
22768;SDS011;13001;51.968;5.918;2022-10-31T04:52:01;769.92;;;703.90;;
22768;SDS011;13001;51.968;5.918;2022-10-31T04:54:29;758.72;;;694.05;;
22768;SDS011;13001;51.968;5.918;2022-10-31T04:56:56;746.42;;;682.88;;
22768;SDS011;13001;51.968;5.918;2022-10-31T04:59:23;731.35;;;669.88;;
22768;SDS011;13001;51.968;5.918;2022-10-31T05:01:50;738.58;;;676.05;;
22768;SDS011;13001;51.968;5.918;2022-10-31T05:04:18;725.53;;;664.63;;
22768;SDS011;13001;51.968;5.918;2022-10-31T05:06:45;704.23;;;644.45;;
22768;SDS011;13001;51.968;5.918;2022-10-31T05:09:12;699.77;;;641.25;;
22768;SDS011;13001;51.968;5.918;2022-10-31T05:11:39;689.60;;;632.62;;
22768;SDS011;13001;51.968;5.918;2022-10-31T05:14:07;676.03;;;620.30;;
22768;SDS011;13001;51.968;5.918;2022-10-31T05:16:34;689.75;;;629.85;;
22768;SDS011;13001;51.968;5.918;2022-10-31T05:19:01;715.00;;;653.02;;
22768;SDS011;13001;51.968;5.918;2022-10-31T05:21:28;763.45;;;696.42;;
22768;SDS011;13001;51.968;5.918;2022-10-31T05:23:56;729.43;;;666.37;;
22768;SDS011;13001;51.968;5.918;2022-10-31T05:26:23;758.85;;;694.20;;
22768;SDS011;13001;51.968;5.918;2022-10-31T05:28:53;755.73;;;691.50;;
22768;SDS011;13001;51.968;5.918;2022-10-31T05:31:20;716.33;;;656.57;;
22768;SDS011;13001;51.968;5.918;2022-10-31T05:33:47;683.27;;;624.65;;
22768;SDS011;13001;51.968;5.918;2022-10-31T05:36:14;669.70;;;612.23;;
22768;SDS011;13001;51.968;5.918;2022-10-31T05:38:41;659.60;;;603.48;;
22768;SDS011;13001;51.968;5.918;2022-10-31T05:41:09;683.27;;;624.63;;
22768;SDS011;13001;51.968;5.918;2022-10-31T05:43:36;696.33;;;636.10;;
22768;SDS011;13001;51.968;5.918;2022-10-31T05:46:03;713.50;;;652.62;;
22768;SDS011;13001;51.968;5.918;2022-10-31T05:48:30;723.20;;;660.95;;
22768;SDS011;13001;51.968;5.918;2022-10-31T05:50:58;792.13;;;725.00;;
22768;SDS011;13001;51.968;5.918;2022-10-31T05:53:25;754.35;;;689.92;;
22768;SDS011;13001;51.968;5.918;2022-10-31T05:55:52;743.20;;;679.48;;
22768;SDS011;13001;51.968;5.918;2022-10-31T05:58:19;741.48;;;678.38;;
22768;SDS011;13001;51.968;5.918;2022-10-31T06:00:47;732.73;;;670.20;;
22768;SDS011;13001;51.968;5.918;2022-10-31T06:03:14;679.17;;;620.98;;
22768;SDS011;13001;51.968;5.918;2022-10-31T06:05:41;659.22;;;602.97;;
22768;SDS011;13001;51.968;5.918;2022-10-31T06:08:09;614.08;;;562.85;;
22768;SDS011;13001;51.968;5.918;2022-10-31T06:10:36;593.70;;;544.30;;
22768;SDS011;13001;51.968;5.918;2022-10-31T06:13:03;610.05;;;559.30;;
22768;SDS011;13001;51.968;5.918;2022-10-31T06:15:32;609.70;;;557.25;;
22768;SDS011;13001;51.968;5.918;2022-10-31T06:18:00;651.70;;;594.77;;
22768;SDS011;13001;51.968;5.918;2022-10-31T06:20:27;608.87;;;557.92;;
22768;SDS011;13001;51.968;5.918;2022-10-31T06:22:55;618.55;;;567.30;;
22768;SDS011;13001;51.968;5.918;2022-10-31T06:25:22;610.23;;;558.62;;
22768;SDS011;13001;51.968;5.918;2022-10-31T06:27:49;618.83;;;568.10;;
22768;SDS011;13001;51.968;5.918;2022-10-31T08:00:43;581.55;;;533.35;;
22768;SDS011;13001;51.968;5.918;2022-10-31T08:03:11;467.20;;;428.55;;
22768;SDS011;13001;51.968;5.918;2022-10-31T08:05:39;393.97;;;365.40;;
22768;SDS011;13001;51.968;5.918;2022-10-31T08:08:07;454.83;;;420.52;;
22768;SDS011;13001;51.968;5.918;2022-10-31T08:10:35;448.62;;;414.43;;
22768;SDS011;13001;51.968;5.918;2022-10-31T08:13:06;463.63;;;430.27;;
22768;SDS011;13001;51.968;5.918;2022-10-31T08:15:33;470.62;;;438.52;;
22768;SDS011;13001;51.968;5.918;2022-10-31T08:18:02;501.03;;;465.20;;
22768;SDS011;13001;51.968;5.918;2022-10-31T08:20:30;486.32;;;448.47;;
22768;SDS011;13001;51.968;5.918;2022-10-31T08:22:58;459.33;;;426.27;;
22768;SDS011;13001;51.968;5.918;2022-10-31T08:25:26;469.17;;;435.27;;
22768;SDS011;13001;51.968;5.918;2022-10-31T08:27:54;466.50;;;432.12;;
22768;SDS011;13001;51.968;5.918;2022-10-31T08:30:23;542.05;;;501.55;;
22768;SDS011;13001;51.968;5.918;2022-10-31T08:33:05;497.48;;;460.55;;
22768;SDS011;13001;51.968;5.918;2022-10-31T08:35:28;375.60;;;348.98;;
22768;SDS011;13001;51.968;5.918;2022-10-31T08:37:55;379.15;;;352.38;;
22768;SDS011;13001;51.968;5.918;2022-10-31T08:40:23;427.28;;;395.55;;
22768;SDS011;13001;51.968;5.918;2022-10-31T08:43:02;465.57;;;429.30;;
22768;SDS011;13001;51.968;5.918;2022-10-31T08:45:25;545.57;;;501.55;;
22768;SDS011;13001;51.968;5.918;2022-10-31T08:47:56;611.37;;;559.63;;
22768;SDS011;13001;51.968;5.918;2022-10-31T08:50:21;591.67;;;543.17;;
22768;SDS011;13001;51.968;5.918;2022-10-31T08:52:49;575.98;;;530.10;;
22768;SDS011;13001;51.968;5.918;2022-10-31T08:55:16;513.60;;;472.60;;
22768;SDS011;13001;51.968;5.918;2022-10-31T08:57:43;520.02;;;483.27;;
22768;SDS011;13001;51.968;5.918;2022-10-31T09:00:10;453.08;;;422.00;;
22768;SDS011;13001;51.968;5.918;2022-10-31T09:02:38;533.02;;;491.42;;
22768;SDS011;13001;51.968;5.918;2022-10-31T09:05:05;576.67;;;531.60;;
22768;SDS011;13001;51.968;5.918;2022-10-31T09:07:33;654.35;;;600.85;;
22768;SDS011;13001;51.968;5.918;2022-10-31T09:10:00;626.90;;;576.10;;
22768;SDS011;13001;51.968;5.918;2022-10-31T09:12:27;630.17;;;580.05;;
22768;SDS011;13001;51.968;5.918;2022-10-31T09:14:54;592.05;;;545.75;;
22768;SDS011;13001;51.968;5.918;2022-10-31T09:17:22;623.47;;;572.30;;
22768;SDS011;13001;51.968;5.918;2022-10-31T09:19:49;618.17;;;566.40;;
22768;SDS011;13001;51.968;5.918;2022-10-31T09:22:16;689.57;;;631.27;;
22768;SDS011;13001;51.968;5.918;2022-10-31T09:24:43;714.80;;;654.53;;
22768;SDS011;13001;51.968;5.918;2022-10-31T09:27:11;691.63;;;634.20;;
22768;SDS011;13001;51.968;5.918;2022-10-31T09:29:38;637.90;;;584.80;;
22768;SDS011;13001;51.968;5.918;2022-10-31T09:32:05;586.85;;;539.90;;
22768;SDS011;13001;51.968;5.918;2022-10-31T09:34:32;557.80;;;513.95;;
22768;SDS011;13001;51.968;5.918;2022-10-31T09:37:00;721.35;;;661.55;;
22768;SDS011;13001;51.968;5.918;2022-10-31T09:39:27;725.55;;;666.38;;
22768;SDS011;13001;51.968;5.918;2022-10-31T09:42:03;695.45;;;637.88;;
22768;SDS011;13001;51.968;5.918;2022-10-31T09:47:05;642.40;;;591.33;;
22768;SDS011;13001;51.968;5.918;2022-10-31T09:49:37;641.23;;;590.90;;
22768;SDS011;13001;51.968;5.918;2022-10-31T09:52:11;603.60;;;558.00;;
22768;SDS011;13001;51.968;5.918;2022-10-31T09:54:40;619.10;;;571.70;;
22768;SDS011;13001;51.968;5.918;2022-10-31T09:57:10;542.20;;;500.95;;
22768;SDS011;13001;51.968;5.918;2022-10-31T09:59:37;513.92;;;475.07;;
22768;SDS011;13001;51.968;5.918;2022-10-31T10:02:06;506.85;;;470.38;;
22768;SDS011;13001;51.968;5.918;2022-10-31T10:07:24;598.05;;;555.35;;
22768;SDS011;13001;51.968;5.918;2022-10-31T10:09:50;557.23;;;518.65;;
22768;SDS011;13001;51.968;5.918;2022-10-31T10:12:33;624.42;;;579.90;;
22768;SDS011;13001;51.968;5.918;2022-10-31T10:17:43;617.33;;;573.25;;
22768;SDS011;13001;51.968;5.918;2022-10-31T10:20:12;625.92;;;576.10;;
22768;SDS011;13001;51.968;5.918;2022-10-31T10:22:50;603.00;;;561.30;;
22768;SDS011;13001;51.968;5.918;2022-10-31T10:25:20;645.63;;;596.70;;
22768;SDS011;13001;51.968;5.918;2022-10-31T10:28:07;564.48;;;523.85;;
22768;SDS011;13001;51.968;5.918;2022-10-31T10:30:43;649.45;;;599.52;;
22768;SDS011;13001;51.968;5.918;2022-10-31T10:33:05;545.97;;;507.50;;
22768;SDS011;13001;51.968;5.918;2022-10-31T10:35:33;643.00;;;594.02;;
22768;SDS011;13001;51.968;5.918;2022-10-31T10:38:02;738.30;;;680.47;;
22768;SDS011;13001;51.968;5.918;2022-10-31T10:40:30;532.92;;;492.95;;
22768;SDS011;13001;51.968;5.918;2022-10-31T10:52:27;555.25;;;513.22;;
22768;SDS011;13001;51.968;5.918;2022-10-31T10:54:29;594.77;;;549.38;;
22768;SDS011;13001;51.968;5.918;2022-10-31T10:56:56;661.17;;;610.30;;
22768;SDS011;13001;51.968;5.918;2022-10-31T10:59:21;595.62;;;548.90;;
22768;SDS011;13001;51.968;5.918;2022-10-31T11:01:54;581.93;;;537.07;;
22768;SDS011;13001;51.968;5.918;2022-10-31T11:04:34;559.73;;;517.37;;
22768;SDS011;13001;51.968;5.918;2022-10-31T11:07:06;548.55;;;507.12;;
22768;SDS011;13001;51.968;5.918;2022-10-31T11:09:34;697.23;;;643.53;;
22768;SDS011;13001;51.968;5.918;2022-10-31T11:12:09;592.55;;;546.15;;
22768;SDS011;13001;51.968;5.918;2022-10-31T11:14:42;570.35;;;526.42;;
22768;SDS011;13001;51.968;5.918;2022-10-31T11:17:25;704.77;;;650.55;;
22768;SDS011;13001;51.968;5.918;2022-10-31T11:19:59;689.52;;;635.30;;
22768;SDS011;13001;51.968;5.918;2022-10-31T11:22:18;583.80;;;538.05;;
22768;SDS011;13001;51.968;5.918;2022-10-31T11:24:45;650.25;;;598.83;;
22768;SDS011;13001;51.968;5.918;2022-10-31T11:27:16;599.37;;;551.90;;
22768;SDS011;13001;51.968;5.918;2022-10-31T11:29:44;700.60;;;645.57;;
22768;SDS011;13001;51.968;5.918;2022-10-31T11:32:17;749.40;;;690.65;;
22768;SDS011;13001;51.968;5.918;2022-10-31T11:34:43;640.40;;;588.73;;
22768;SDS011;13001;51.968;5.918;2022-10-31T11:37:16;637.05;;;586.45;;
22768;SDS011;13001;51.968;5.918;2022-10-31T11:39:41;743.73;;;685.13;;
22768;SDS011;13001;51.968;5.918;2022-10-31T11:42:09;719.55;;;663.48;;
22768;SDS011;13001;51.968;5.918;2022-10-31T11:44:37;684.08;;;631.00;;
22768;SDS011;13001;51.968;5.918;2022-10-31T11:47:05;647.87;;;600.17;;
22768;SDS011;13001;51.968;5.918;2022-10-31T11:49:35;677.23;;;625.75;;
22768;SDS011;13001;51.968;5.918;2022-10-31T11:52:07;634.55;;;587.83;;
22768;SDS011;13001;51.968;5.918;2022-10-31T11:54:44;682.25;;;630.05;;
22768;SDS011;13001;51.968;5.918;2022-10-31T11:57:21;676.27;;;624.02;;
22768;SDS011;13001;51.968;5.918;2022-10-31T11:59:35;667.30;;;615.62;;
22768;SDS011;13001;51.968;5.918;2022-10-31T12:02:14;655.95;;;606.87;;
22768;SDS011;13001;51.968;5.918;2022-10-31T12:04:44;646.35;;;597.67;;
22768;SDS011;13001;51.968;5.918;2022-10-31T12:07:07;658.72;;;609.22;;
22768;SDS011;13001;51.968;5.918;2022-10-31T12:09:35;658.10;;;608.37;;
22768;SDS011;13001;51.968;5.918;2022-10-31T12:12:25;745.98;;;687.05;;
22768;SDS011;13001;51.968;5.918;2022-10-31T12:15:00;649.10;;;600.02;;
22768;SDS011;13001;51.968;5.918;2022-10-31T12:17:23;668.35;;;616.62;;
22768;SDS011;13001;51.968;5.918;2022-10-31T12:20:10;666.75;;;616.00;;
22768;SDS011;13001;51.968;5.918;2022-10-31T12:25:26;640.60;;;593.65;;
22768;SDS011;13001;51.968;5.918;2022-10-31T12:35:25;692.87;;;639.10;;
22768;SDS011;13001;51.968;5.918;2022-10-31T12:38:04;672.40;;;619.85;;
22768;SDS011;13001;51.968;5.918;2022-10-31T12:40:48;670.57;;;618.40;;
22768;SDS011;13001;51.968;5.918;2022-10-31T12:45:56;732.30;;;673.97;;
22768;SDS011;13001;51.968;5.918;2022-10-31T12:53:48;695.85;;;642.15;;
22768;SDS011;13001;51.968;5.918;2022-10-31T12:59:35;699.15;;;644.45;;
22768;SDS011;13001;51.968;5.918;2022-10-31T13:01:37;688.03;;;635.02;;
22768;SDS011;13001;51.968;5.918;2022-10-31T13:06:49;719.55;;;662.12;;
22768;SDS011;13001;51.968;5.918;2022-10-31T13:09:19;712.00;;;655.98;;
22768;SDS011;13001;51.968;5.918;2022-10-31T13:11:48;725.40;;;665.37;;
22768;SDS011;13001;51.968;5.918;2022-10-31T13:14:20;741.47;;;682.03;;
22768;SDS011;13001;51.968;5.918;2022-10-31T13:16:45;707.75;;;650.00;;
22768;SDS011;13001;51.968;5.918;2022-10-31T13:19:16;749.80;;;687.88;;
22768;SDS011;13001;51.968;5.918;2022-10-31T13:21:58;711.45;;;654.27;;
22768;SDS011;13001;51.968;5.918;2022-10-31T13:24:36;694.28;;;639.40;;
22768;SDS011;13001;51.968;5.918;2022-10-31T13:27:10;680.48;;;627.00;;
22768;SDS011;13001;51.968;5.918;2022-10-31T13:29:33;672.63;;;621.35;;
22768;SDS011;13001;51.968;5.918;2022-10-31T13:32:04;731.55;;;674.17;;
22768;SDS011;13001;51.968;5.918;2022-10-31T13:34:38;743.80;;;685.37;;
22768;SDS011;13001;51.968;5.918;2022-10-31T13:40:02;682.10;;;630.60;;
22768;SDS011;13001;51.968;5.918;2022-10-31T13:42:40;670.00;;;619.23;;
22768;SDS011;13001;51.968;5.918;2022-10-31T13:45:14;740.05;;;681.65;;
22768;SDS011;13001;51.968;5.918;2022-10-31T13:47:41;708.62;;;652.70;;
22768;SDS011;13001;51.968;5.918;2022-10-31T13:50:19;727.73;;;670.30;;
22768;SDS011;13001;51.968;5.918;2022-10-31T13:52:46;799.40;;;735.45;;
22768;SDS011;13001;51.968;5.918;2022-10-31T13:56:02;736.47;;;678.55;;
22768;SDS011;13001;51.968;5.918;2022-10-31T13:57:45;748.60;;;688.93;;
22768;SDS011;13001;51.968;5.918;2022-10-31T14:02:55;793.50;;;728.77;;
22768;SDS011;13001;51.968;5.918;2022-10-31T14:05:26;675.17;;;624.10;;
22768;SDS011;13001;51.968;5.918;2022-10-31T14:07:54;756.95;;;696.22;;
22768;SDS011;13001;51.968;5.918;2022-10-31T14:10:24;759.57;;;698.57;;
22768;SDS011;13001;51.968;5.918;2022-10-31T14:12:51;765.33;;;704.38;;
22768;SDS011;13001;51.968;5.918;2022-10-31T14:15:22;753.33;;;693.83;;
22768;SDS011;13001;51.968;5.918;2022-10-31T14:17:51;764.70;;;703.75;;
22768;SDS011;13001;51.968;5.918;2022-10-31T14:22:47;736.80;;;678.67;;
22768;SDS011;13001;51.968;5.918;2022-10-31T14:25:28;675.95;;;623.73;;
22768;SDS011;13001;51.968;5.918;2022-10-31T14:27:56;745.12;;;686.12;;
22768;SDS011;13001;51.968;5.918;2022-10-31T14:30:24;746.83;;;687.83;;
22768;SDS011;13001;51.968;5.918;2022-10-31T14:32:53;679.15;;;626.05;;
22768;SDS011;13001;51.968;5.918;2022-10-31T14:35:21;733.27;;;673.75;;
22768;SDS011;13001;51.968;5.918;2022-10-31T14:38:05;765.00;;;703.30;;
22768;SDS011;13001;51.968;5.918;2022-10-31T14:50:58;728.80;;;670.60;;
22768;SDS011;13001;51.968;5.918;2022-10-31T14:53:34;732.65;;;674.62;;
22768;SDS011;13001;51.968;5.918;2022-10-31T14:56:00;750.90;;;691.08;;
22768;SDS011;13001;51.968;5.918;2022-10-31T15:01:03;732.73;;;674.77;;
22768;SDS011;13001;51.968;5.918;2022-10-31T15:03:32;733.35;;;674.10;;
22768;SDS011;13001;51.968;5.918;2022-10-31T15:06:05;760.00;;;701.00;;
22768;SDS011;13001;51.968;5.918;2022-10-31T15:11:10;825.33;;;756.08;;
22768;SDS011;13001;51.968;5.918;2022-10-31T15:13:41;782.47;;;719.80;;
22768;SDS011;13001;51.968;5.918;2022-10-31T15:16:09;738.83;;;675.70;;
22768;SDS011;13001;51.968;5.918;2022-10-31T15:18:36;764.00;;;703.05;;
22768;SDS011;13001;51.968;5.918;2022-10-31T15:21:06;773.13;;;710.35;;
22768;SDS011;13001;51.968;5.918;2022-10-31T15:23:34;710.63;;;651.27;;
22768;SDS011;13001;51.968;5.918;2022-10-31T15:26:11;741.05;;;681.40;;
22768;SDS011;13001;51.968;5.918;2022-10-31T15:28:30;827.52;;;760.08;;
22768;SDS011;13001;51.968;5.918;2022-10-31T15:30:59;749.02;;;688.70;;
22768;SDS011;13001;51.968;5.918;2022-10-31T15:33:30;837.17;;;767.00;;
22768;SDS011;13001;51.968;5.918;2022-10-31T15:35:59;806.70;;;741.75;;
22768;SDS011;13001;51.968;5.918;2022-10-31T15:38:27;900.47;;;822.80;;
22768;SDS011;13001;51.968;5.918;2022-10-31T15:40:59;893.10;;;814.17;;
22768;SDS011;13001;51.968;5.918;2022-10-31T15:43:27;895.60;;;817.60;;
22768;SDS011;13001;51.968;5.918;2022-10-31T15:45:55;864.60;;;789.45;;
22768;SDS011;13001;51.968;5.918;2022-10-31T15:48:23;867.17;;;792.13;;
22768;SDS011;13001;51.968;5.918;2022-10-31T15:50:52;805.00;;;737.38;;
22768;SDS011;13001;51.968;5.918;2022-10-31T15:53:21;759.63;;;697.13;;
22768;SDS011;13001;51.968;5.918;2022-10-31T15:55:50;845.83;;;774.00;;
22768;SDS011;13001;51.968;5.918;2022-10-31T15:58:17;868.52;;;792.85;;
22768;SDS011;13001;51.968;5.918;2022-10-31T16:00:45;886.73;;;809.10;;
22768;SDS011;13001;51.968;5.918;2022-10-31T16:05:47;858.77;;;784.70;;
22768;SDS011;13001;51.968;5.918;2022-10-31T16:11:00;732.12;;;672.92;;
22768;SDS011;13001;51.968;5.918;2022-10-31T16:13:30;860.65;;;787.65;;
22768;SDS011;13001;51.968;5.918;2022-10-31T16:16:01;878.05;;;802.70;;
22768;SDS011;13001;51.968;5.918;2022-10-31T16:18:30;668.30;;;616.25;;
22768;SDS011;13001;51.968;5.918;2022-10-31T16:20:58;789.15;;;723.00;;
22768;SDS011;13001;51.968;5.918;2022-10-31T16:23:25;781.17;;;714.85;;
22768;SDS011;13001;51.968;5.918;2022-10-31T16:25:53;842.37;;;770.08;;
22768;SDS011;13001;51.968;5.918;2022-10-31T16:28:22;715.40;;;659.20;;
22768;SDS011;13001;51.968;5.918;2022-10-31T16:30:58;815.70;;;746.95;;
22768;SDS011;13001;51.968;5.918;2022-10-31T16:33:26;718.60;;;660.20;;
22768;SDS011;13001;51.968;5.918;2022-10-31T16:35:53;857.02;;;782.65;;
22768;SDS011;13001;51.968;5.918;2022-10-31T16:38:21;682.15;;;628.73;;
22768;SDS011;13001;51.968;5.918;2022-10-31T16:40:49;815.47;;;746.70;;
22768;SDS011;13001;51.968;5.918;2022-10-31T16:43:18;825.40;;;755.20;;
22768;SDS011;13001;51.968;5.918;2022-10-31T16:45:47;692.98;;;636.98;;
22768;SDS011;13001;51.968;5.918;2022-10-31T16:48:16;847.27;;;774.73;;
22768;SDS011;13001;51.968;5.918;2022-10-31T16:50:44;701.92;;;645.33;;
22768;SDS011;13001;51.968;5.918;2022-10-31T16:53:13;821.10;;;751.15;;
22768;SDS011;13001;51.968;5.918;2022-10-31T16:55:44;721.23;;;662.20;;
22768;SDS011;13001;51.968;5.918;2022-10-31T16:58:14;724.75;;;666.58;;
22768;SDS011;13001;51.968;5.918;2022-10-31T17:00:41;827.00;;;757.20;;
22768;SDS011;13001;51.968;5.918;2022-10-31T17:03:08;762.72;;;699.33;;
22768;SDS011;13001;51.968;5.918;2022-10-31T17:05:36;764.58;;;701.05;;
22768;SDS011;13001;51.968;5.918;2022-10-31T17:08:03;750.65;;;688.50;;